sensor_id;sensor_type;location;lat;lon;timestamp;pressure;altitude;pressure_sealevel;temperature;humidity
38227;BME280;24026;49.446;8.576;2023-08-06T00:00:31;99666.16;;;22.48;54.65
38227;BME280;24026;49.446;8.576;2023-08-06T00:02:51;99666.16;;;22.48;54.96
38227;BME280;24026;49.446;8.576;2023-08-06T00:05:12;99665.38;;;22.48;55.04
38227;BME280;24026;49.446;8.576;2023-08-06T00:07:32;99661.06;;;22.47;54.91
38227;BME280;24026;49.446;8.576;2023-08-06T00:09:53;99656.81;;;22.46;55.17
38227;BME280;24026;49.446;8.576;2023-08-06T00:12:13;99664.13;;;22.45;54.76
38227;BME280;24026;49.446;8.576;2023-08-06T00:14:33;99655.22;;;22.45;55.17
38227;BME280;24026;49.446;8.576;2023-08-06T00:16:54;99661.78;;;22.44;54.85
38227;BME280;24026;49.446;8.576;2023-08-06T00:19:14;99652.06;;;22.43;54.81
38227;BME280;24026;49.446;8.576;2023-08-06T00:21:35;99660.19;;;22.43;55.03
38227;BME280;24026;49.446;8.576;2023-08-06T00:23:55;99651.28;;;22.42;55.12
38227;BME280;24026;49.446;8.576;2023-08-06T00:26:15;99649.69;;;22.41;55.17
38227;BME280;24026;49.446;8.576;2023-08-06T00:28:36;99647.31;;;22.39;55.26
38227;BME280;24026;49.446;8.576;2023-08-06T00:30:56;99642.69;;;22.40;55.14
38227;BME280;24026;49.446;8.576;2023-08-06T00:33:17;99631.09;;;22.39;55.18
38227;BME280;24026;49.446;8.576;2023-08-06T00:35:37;99633.00;;;22.39;55.06
38227;BME280;24026;49.446;8.576;2023-08-06T00:37:58;99628.72;;;22.38;55.27
38227;BME280;24026;49.446;8.576;2023-08-06T00:40:20;99629.84;;;22.37;55.35
38227;BME280;24026;49.446;8.576;2023-08-06T00:42:41;99627.16;;;22.37;55.11
38227;BME280;24026;49.446;8.576;2023-08-06T00:45:02;99627.16;;;22.37;54.96
38227;BME280;24026;49.446;8.576;2023-08-06T00:47:23;99619.38;;;22.35;55.31
38227;BME280;24026;49.446;8.576;2023-08-06T00:49:44;99615.06;;;22.34;55.16
38227;BME280;24026;49.446;8.576;2023-08-06T00:52:05;99616.19;;;22.33;55.18
38227;BME280;24026;49.446;8.576;2023-08-06T00:54:27;99616.19;;;22.33;55.60
38227;BME280;24026;49.446;8.576;2023-08-06T00:56:47;99616.19;;;22.33;55.38
38227;BME280;24026;49.446;8.576;2023-08-06T00:59:09;99620.81;;;22.33;55.32
38227;BME280;24026;49.446;8.576;2023-08-06T01:01:31;99611.13;;;22.32;55.31
38227;BME280;24026;49.446;8.576;2023-08-06T01:03:52;99610.34;;;22.31;55.29
38227;BME280;24026;49.446;8.576;2023-08-06T01:06:14;99610.34;;;22.31;54.99
38227;BME280;24026;49.446;8.576;2023-08-06T01:09:01;99609.41;;;22.27;55.27
38227;BME280;24026;49.446;8.576;2023-08-06T01:11:30;99600.19;;;22.28;55.23
38227;BME280;24026;49.446;8.576;2023-08-06T01:13:59;99601.28;;;22.27;55.09
38227;BME280;24026;49.446;8.576;2023-08-06T01:16:23;99593.19;;;22.27;55.20
38227;BME280;24026;49.446;8.576;2023-08-06T01:18:44;99588.88;;;22.26;55.43
38227;BME280;24026;49.446;8.576;2023-08-06T01:21:06;99585.41;;;22.26;55.60
38227;BME280;24026;49.446;8.576;2023-08-06T01:23:27;99584.59;;;22.25;55.38
38227;BME280;24026;49.446;8.576;2023-08-06T01:26:05;99578.41;;;22.25;55.31
38227;BME280;24026;49.446;8.576;2023-08-06T01:28:52;99576.38;;;22.21;55.40
38227;BME280;24026;49.446;8.576;2023-08-06T01:31:30;99572.09;;;22.20;55.33
38227;BME280;24026;49.446;8.576;2023-08-06T01:33:52;99577.16;;;22.22;55.49
38227;BME280;24026;49.446;8.576;2023-08-06T01:36:16;99569.84;;;22.23;55.55
38227;BME280;24026;49.446;8.576;2023-08-06T01:38:38;99560.94;;;22.22;55.48
38227;BME280;24026;49.446;8.576;2023-08-06T01:40:58;99560.13;;;22.21;55.56
38227;BME280;24026;49.446;8.576;2023-08-06T01:43:19;99559.34;;;22.21;55.62
38227;BME280;24026;49.446;8.576;2023-08-06T01:45:39;99562.84;;;22.21;55.42
38227;BME280;24026;49.446;8.576;2023-08-06T01:48:00;99564.75;;;22.21;55.41
38227;BME280;24026;49.446;8.576;2023-08-06T01:50:20;99553.16;;;22.20;55.32
38227;BME280;24026;49.446;8.576;2023-08-06T01:52:40;99552.34;;;22.20;55.39
38227;BME280;24026;49.446;8.576;2023-08-06T01:55:01;99548.09;;;22.19;55.54
38227;BME280;24026;49.446;8.576;2023-08-06T01:57:21;99561.63;;;22.19;55.51
38227;BME280;24026;49.446;8.576;2023-08-06T01:59:41;99556.97;;;22.19;55.20
38227;BME280;24026;49.446;8.576;2023-08-06T02:02:02;99566.22;;;22.18;55.20
38227;BME280;24026;49.446;8.576;2023-08-06T02:04:23;99558.91;;;22.19;55.63
38227;BME280;24026;49.446;8.576;2023-08-06T02:06:43;99557.66;;;22.16;55.58
38227;BME280;24026;49.446;8.576;2023-08-06T02:09:03;99567.34;;;22.17;55.40
38227;BME280;24026;49.446;8.576;2023-08-06T02:11:24;99572.00;;;22.17;55.50
38227;BME280;24026;49.446;8.576;2023-08-06T02:13:45;99569.28;;;22.17;55.31
38227;BME280;24026;49.446;8.576;2023-08-06T02:16:08;99567.69;;;22.16;55.48
38227;BME280;24026;49.446;8.576;2023-08-06T02:18:29;99555.28;;;22.15;55.34
38227;BME280;24026;49.446;8.576;2023-08-06T02:20:57;99557.22;;;22.14;55.22
38227;BME280;24026;49.446;8.576;2023-08-06T02:23:18;99549.09;;;22.14;55.33
38227;BME280;24026;49.446;8.576;2023-08-06T02:25:38;99550.22;;;22.13;55.40
38227;BME280;24026;49.446;8.576;2023-08-06T02:27:58;99542.09;;;22.13;55.39
38227;BME280;24026;49.446;8.576;2023-08-06T02:30:19;99541.31;;;22.13;55.42
38227;BME280;24026;49.446;8.576;2023-08-06T02:32:39;99537.81;;;22.12;54.87
38227;BME280;24026;49.446;8.576;2023-08-06T02:35:00;99545.94;;;22.12;55.29
38227;BME280;24026;49.446;8.576;2023-08-06T02:37:20;99538.16;;;22.11;55.58
38227;BME280;24026;49.446;8.576;2023-08-06T02:39:41;99539.28;;;22.10;55.22
38227;BME280;24026;49.446;8.576;2023-08-06T02:42:01;99539.28;;;22.10;55.29
38227;BME280;24026;49.446;8.576;2023-08-06T02:44:22;99543.91;;;22.09;55.51
38227;BME280;24026;49.446;8.576;2023-08-06T02:46:44;99535.78;;;22.09;55.20
38227;BME280;24026;49.446;8.576;2023-08-06T02:49:06;99532.31;;;22.09;55.16
38227;BME280;24026;49.446;8.576;2023-08-06T02:51:26;99533.44;;;22.08;55.37
38227;BME280;24026;49.446;8.576;2023-08-06T02:53:48;99538.84;;;22.08;55.26
38227;BME280;24026;49.446;8.576;2023-08-06T02:56:09;99532.97;;;22.06;55.33
38227;BME280;24026;49.446;8.576;2023-08-06T02:58:29;99539.94;;;22.07;55.36
38227;BME280;24026;49.446;8.576;2023-08-06T03:01:06;99529.03;;;22.03;55.13
38227;BME280;24026;49.446;8.576;2023-08-06T03:03:27;99542.22;;;22.05;55.23
38227;BME280;24026;49.446;8.576;2023-08-06T03:05:54;99539.84;;;22.03;55.24
38227;BME280;24026;49.446;8.576;2023-08-06T03:08:14;99529.84;;;22.04;55.29
38227;BME280;24026;49.446;8.576;2023-08-06T03:10:34;99526.31;;;22.03;54.84
38227;BME280;24026;49.446;8.576;2023-08-06T03:12:55;99525.53;;;22.02;54.98
38227;BME280;24026;49.446;8.576;2023-08-06T03:15:15;99534.78;;;22.01;55.30
38227;BME280;24026;49.446;8.576;2023-08-06T03:17:36;99523.94;;;22.01;54.97
38227;BME280;24026;49.446;8.576;2023-08-06T03:19:56;99516.97;;;22.00;54.96
38227;BME280;24026;49.446;8.576;2023-08-06T03:22:16;99517.75;;;22.01;55.10
38227;BME280;24026;49.446;8.576;2023-08-06T03:24:37;99516.19;;;22.00;55.12
38227;BME280;24026;49.446;8.576;2023-08-06T03:26:57;99507.28;;;21.99;54.92
38227;BME280;24026;49.446;8.576;2023-08-06T03:29:18;99513.81;;;21.98;55.08
38227;BME280;24026;49.446;8.576;2023-08-06T03:31:38;99509.97;;;21.99;54.82
38227;BME280;24026;49.446;8.576;2023-08-06T03:33:59;99509.22;;;21.99;54.92
38227;BME280;24026;49.446;8.576;2023-08-06T03:36:19;99502.22;;;21.98;54.69
38227;BME280;24026;49.446;8.576;2023-08-06T03:38:40;99507.63;;;21.98;54.63
38227;BME280;24026;49.446;8.576;2023-08-06T03:41:00;99505.69;;;21.98;54.76
38227;BME280;24026;49.446;8.576;2023-08-06T03:43:20;99505.69;;;21.98;54.68
38227;BME280;24026;49.446;8.576;2023-08-06T03:45:41;99498.72;;;21.97;54.69
38227;BME280;24026;49.446;8.576;2023-08-06T03:48:01;99512.25;;;21.97;54.77
38227;BME280;24026;49.446;8.576;2023-08-06T03:52:42;99505.59;;;21.95;54.70
38227;BME280;24026;49.446;8.576;2023-08-06T03:55:03;99506.41;;;21.95;54.93
38227;BME280;24026;49.446;8.576;2023-08-06T03:57:23;99511.81;;;21.95;54.72
38227;BME280;24026;49.446;8.576;2023-08-06T03:59:43;99511.81;;;21.95;54.59
38227;BME280;24026;49.446;8.576;2023-08-06T04:02:04;99506.72;;;21.94;54.74
38227;BME280;24026;49.446;8.576;2023-08-06T04:04:24;99510.22;;;21.94;54.73
38227;BME280;24026;49.446;8.576;2023-08-06T04:06:45;99512.13;;;21.94;54.78
38227;BME280;24026;49.446;8.576;2023-08-06T04:09:05;99509.44;;;21.94;54.47
38227;BME280;24026;49.446;8.576;2023-08-06T04:11:25;99505.91;;;21.93;54.59
38227;BME280;24026;49.446;8.576;2023-08-06T04:13:46;99501.31;;;21.94;54.43
38227;BME280;24026;49.446;8.576;2023-08-06T04:16:06;99505.91;;;21.93;54.37
38227;BME280;24026;49.446;8.576;2023-08-06T04:18:27;99508.97;;;21.92;54.68
38227;BME280;24026;49.446;8.576;2023-08-06T04:20:47;99509.78;;;21.92;54.60
38227;BME280;24026;49.446;8.576;2023-08-06T04:23:09;99505.47;;;21.91;54.39
38227;BME280;24026;49.446;8.576;2023-08-06T04:25:29;99500.06;;;21.91;54.72
38227;BME280;24026;49.446;8.576;2023-08-06T04:27:50;99502.78;;;21.91;54.53
38227;BME280;24026;49.446;8.576;2023-08-06T04:30:10;99503.91;;;21.90;54.39
38227;BME280;24026;49.446;8.576;2023-08-06T04:32:32;99508.53;;;21.90;54.45
38227;BME280;24026;49.446;8.576;2023-08-06T04:34:55;99512.03;;;21.90;54.46
38227;BME280;24026;49.446;8.576;2023-08-06T04:37:15;99507.75;;;21.89;54.63
38227;BME280;24026;49.446;8.576;2023-08-06T04:39:36;99512.38;;;21.89;54.59
38227;BME280;24026;49.446;8.576;2023-08-06T04:41:57;99506.97;;;21.89;54.59
38227;BME280;24026;49.446;8.576;2023-08-06T04:44:20;99508.06;;;21.88;54.55
38227;BME280;24026;49.446;8.576;2023-08-06T04:46:41;99512.69;;;21.87;54.51
38227;BME280;24026;49.446;8.576;2023-08-06T04:49:01;99511.91;;;21.87;54.41
38227;BME280;24026;49.446;8.576;2023-08-06T04:51:21;99513.81;;;21.86;54.35
38227;BME280;24026;49.446;8.576;2023-08-06T04:53:42;99520.34;;;21.85;54.56
38227;BME280;24026;49.446;8.576;2023-08-06T04:56:02;99514.16;;;21.84;54.26
38227;BME280;24026;49.446;8.576;2023-08-06T04:58:23;99518.00;;;21.83;54.28
38227;BME280;24026;49.446;8.576;2023-08-06T05:00:43;99515.31;;;21.83;54.50
38227;BME280;24026;49.446;8.576;2023-08-06T05:03:05;99517.19;;;21.83;54.54
38227;BME280;24026;49.446;8.576;2023-08-06T05:05:25;99521.03;;;21.82;54.43
38227;BME280;24026;49.446;8.576;2023-08-06T05:07:48;99505.94;;;21.81;54.57
38227;BME280;24026;49.446;8.576;2023-08-06T05:10:09;99517.53;;;21.81;54.49
38227;BME280;24026;49.446;8.576;2023-08-06T05:12:29;99515.16;;;21.80;54.37
38227;BME280;24026;49.446;8.576;2023-08-06T05:14:50;99511.34;;;21.81;54.61
38227;BME280;24026;49.446;8.576;2023-08-06T05:17:10;99510.91;;;21.79;54.33
38227;BME280;24026;49.446;8.576;2023-08-06T05:19:31;99519.00;;;21.79;54.36
38227;BME280;24026;49.446;8.576;2023-08-06T05:21:51;99516.31;;;21.79;54.53
38227;BME280;24026;49.446;8.576;2023-08-06T05:24:12;99511.56;;;21.76;54.46
38227;BME280;24026;49.446;8.576;2023-08-06T05:26:32;99523.16;;;21.76;54.42
38227;BME280;24026;49.446;8.576;2023-08-06T05:28:52;99512.34;;;21.76;54.20
38227;BME280;24026;49.446;8.576;2023-08-06T05:31:13;99514.59;;;21.74;54.46
38227;BME280;24026;49.446;8.576;2023-08-06T05:33:33;99510.31;;;21.73;53.90
38227;BME280;24026;49.446;8.576;2023-08-06T05:35:54;99513.81;;;21.74;54.45
38227;BME280;24026;49.446;8.576;2023-08-06T05:38:14;99513.34;;;21.72;54.17
38227;BME280;24026;49.446;8.576;2023-08-06T05:40:34;99518.75;;;21.72;54.16
38227;BME280;24026;49.446;8.576;2023-08-06T05:42:55;99517.97;;;21.71;54.31
38227;BME280;24026;49.446;8.576;2023-08-06T05:45:15;99517.97;;;21.71;54.19
38227;BME280;24026;49.446;8.576;2023-08-06T05:47:36;99527.25;;;21.70;54.17
38227;BME280;24026;49.446;8.576;2023-08-06T05:49:56;99532.66;;;21.70;54.29
38227;BME280;24026;49.446;8.576;2023-08-06T05:52:16;99526.44;;;21.70;54.21
38227;BME280;24026;49.446;8.576;2023-08-06T05:54:37;99529.47;;;21.68;54.35
38227;BME280;24026;49.446;8.576;2023-08-06T05:56:57;99533.31;;;21.67;54.09
38227;BME280;24026;49.446;8.576;2023-08-06T05:59:18;99541.44;;;21.67;54.16
38227;BME280;24026;49.446;8.576;2023-08-06T06:01:38;99529.78;;;21.67;54.39
38227;BME280;24026;49.446;8.576;2023-08-06T06:03:58;99535.22;;;21.67;54.15
38227;BME280;24026;49.446;8.576;2023-08-06T06:06:19;99539.06;;;21.65;54.26
38227;BME280;24026;49.446;8.576;2023-08-06T06:08:40;99536.34;;;21.65;54.37
38227;BME280;24026;49.446;8.576;2023-08-06T06:11:00;99533.66;;;21.65;54.46
38227;BME280;24026;49.446;8.576;2023-08-06T06:13:21;99537.47;;;21.64;54.20
38227;BME280;24026;49.446;8.576;2023-08-06T06:15:41;99534.31;;;21.62;54.36
38227;BME280;24026;49.446;8.576;2023-08-06T06:18:02;99532.72;;;21.61;54.52
38227;BME280;24026;49.446;8.576;2023-08-06T06:20:22;99541.66;;;21.62;54.45
38227;BME280;24026;49.446;8.576;2023-08-06T06:22:43;99538.47;;;21.60;54.33
38227;BME280;24026;49.446;8.576;2023-08-06T06:25:03;99534.97;;;21.59;54.17
38227;BME280;24026;49.446;8.576;2023-08-06T06:27:24;99540.38;;;21.59;54.12
38227;BME280;24026;49.446;8.576;2023-08-06T06:29:44;99540.38;;;21.59;54.19
38227;BME280;24026;49.446;8.576;2023-08-06T06:32:05;99542.66;;;21.57;54.44
38227;BME280;24026;49.446;8.576;2023-08-06T06:34:25;99553.47;;;21.57;54.38
38227;BME280;24026;49.446;8.576;2023-08-06T06:36:46;99557.28;;;21.56;54.47
38227;BME280;24026;49.446;8.576;2023-08-06T06:39:06;99557.59;;;21.55;54.61
38227;BME280;24026;49.446;8.576;2023-08-06T06:41:28;99560.31;;;21.55;54.53
38227;BME280;24026;49.446;8.576;2023-08-06T06:43:51;99559.53;;;21.54;54.68
38227;BME280;24026;49.446;8.576;2023-08-06T06:46:12;99557.59;;;21.55;54.67
38227;BME280;24026;49.446;8.576;2023-08-06T06:48:33;99553.34;;;21.54;54.58
38227;BME280;24026;49.446;8.576;2023-08-06T06:50:53;99547.13;;;21.53;54.81
38227;BME280;24026;49.446;8.576;2023-08-06T06:53:14;99550.63;;;21.54;54.56
38227;BME280;24026;49.446;8.576;2023-08-06T06:55:34;99549.84;;;21.53;54.90
38227;BME280;24026;49.446;8.576;2023-08-06T06:57:55;99542.88;;;21.52;54.71
38227;BME280;24026;49.446;8.576;2023-08-06T07:00:15;99550.97;;;21.52;54.84
38227;BME280;24026;49.446;8.576;2023-08-06T07:02:36;99549.38;;;21.51;54.71
38227;BME280;24026;49.446;8.576;2023-08-06T07:04:56;99545.56;;;21.52;54.96
38227;BME280;24026;49.446;8.576;2023-08-06T07:07:16;99543.97;;;21.51;54.68
38227;BME280;24026;49.446;8.576;2023-08-06T07:09:37;99542.06;;;21.52;54.60
38227;BME280;24026;49.446;8.576;2023-08-06T07:11:57;99537.78;;;21.51;54.76
38227;BME280;24026;49.446;8.576;2023-08-06T07:14:18;99536.19;;;21.50;55.08
38227;BME280;24026;49.446;8.576;2023-08-06T07:16:38;99543.97;;;21.51;55.08
38227;BME280;24026;49.446;8.576;2023-08-06T07:18:58;99543.19;;;21.51;54.78
38227;BME280;24026;49.446;8.576;2023-08-06T07:21:20;99540.16;;;21.52;54.79
38227;BME280;24026;49.446;8.576;2023-08-06T07:23:40;99552.09;;;21.51;55.00
38227;BME280;24026;49.446;8.576;2023-08-06T07:26:01;99547.47;;;21.52;54.92
38227;BME280;24026;49.446;8.576;2023-08-06T07:28:21;99546.34;;;21.53;54.96
38227;BME280;24026;49.446;8.576;2023-08-06T07:30:43;99545.56;;;21.52;54.84
38227;BME280;24026;49.446;8.576;2023-08-06T07:33:04;99547.47;;;21.52;54.80
38227;BME280;24026;49.446;8.576;2023-08-06T07:35:25;99550.97;;;21.52;54.73
38227;BME280;24026;49.446;8.576;2023-08-06T07:37:48;99550.16;;;21.52;55.14
38227;BME280;24026;49.446;8.576;2023-08-06T07:40:09;99557.16;;;21.53;54.92
38227;BME280;24026;49.446;8.576;2023-08-06T07:42:29;99555.25;;;21.53;55.07
38227;BME280;24026;49.446;8.576;2023-08-06T07:44:52;99544.44;;;21.53;54.76
38227;BME280;24026;49.446;8.576;2023-08-06T07:47:12;99556.50;;;21.56;54.78
38227;BME280;24026;49.446;8.576;2023-08-06T07:49:33;99560.31;;;21.55;54.86
38227;BME280;24026;49.446;8.576;2023-08-06T07:51:53;99556.50;;;21.56;54.82
38227;BME280;24026;49.446;8.576;2023-08-06T07:54:14;99557.28;;;21.56;54.79
38227;BME280;24026;49.446;8.576;2023-08-06T07:56:34;99546.78;;;21.55;54.86
38227;BME280;24026;49.446;8.576;2023-08-06T07:58:56;99542.19;;;21.55;54.86
38227;BME280;24026;49.446;8.576;2023-08-06T08:01:17;99547.59;;;21.55;54.80
38227;BME280;24026;49.446;8.576;2023-08-06T08:03:37;99547.59;;;21.55;54.73
38227;BME280;24026;49.446;8.576;2023-08-06T08:05:58;99547.59;;;21.55;54.94
38227;BME280;24026;49.446;8.576;2023-08-06T08:08:18;99542.97;;;21.56;54.87
38227;BME280;24026;49.446;8.576;2023-08-06T08:10:38;99546.47;;;21.56;55.03
38227;BME280;24026;49.446;8.576;2023-08-06T08:12:59;99546.47;;;21.56;54.77
38227;BME280;24026;49.446;8.576;2023-08-06T08:15:20;99532.94;;;21.56;55.05
38227;BME280;24026;49.446;8.576;2023-08-06T08:17:40;99546.47;;;21.56;54.71
38227;BME280;24026;49.446;8.576;2023-08-06T08:20:00;99539.94;;;21.57;55.03
38227;BME280;24026;49.446;8.576;2023-08-06T08:22:21;99541.88;;;21.57;54.94
38227;BME280;24026;49.446;8.576;2023-08-06T08:24:41;99532.63;;;21.58;55.12
38227;BME280;24026;49.446;8.576;2023-08-06T08:27:02;99536.09;;;21.58;54.84
38227;BME280;24026;49.446;8.576;2023-08-06T08:29:22;99531.50;;;21.59;54.95
38227;BME280;24026;49.446;8.576;2023-08-06T08:31:43;99529.56;;;21.59;55.14
38227;BME280;24026;49.446;8.576;2023-08-06T08:34:05;99532.28;;;21.59;55.03
38227;BME280;24026;49.446;8.576;2023-08-06T08:36:26;99536.56;;;21.60;54.97
38227;BME280;24026;49.446;8.576;2023-08-06T08:38:46;99535.75;;;21.60;54.94
38227;BME280;24026;49.446;8.576;2023-08-06T08:41:09;99541.16;;;21.60;55.10
38227;BME280;24026;49.446;8.576;2023-08-06T08:43:30;99535.75;;;21.60;54.88
38227;BME280;24026;49.446;8.576;2023-08-06T08:45:52;99530.34;;;21.60;54.78
38227;BME280;24026;49.446;8.576;2023-08-06T08:48:16;99525.75;;;21.60;54.94
38227;BME280;24026;49.446;8.576;2023-08-06T08:50:37;99521.91;;;21.61;55.21
38227;BME280;24026;49.446;8.576;2023-08-06T08:52:58;99530.84;;;21.62;55.31
38227;BME280;24026;49.446;8.576;2023-08-06T08:55:20;99530.84;;;21.62;55.24
38227;BME280;24026;49.446;8.576;2023-08-06T08:57:42;99520.78;;;21.62;55.31
38227;BME280;24026;49.446;8.576;2023-08-06T09:00:04;99516.16;;;21.63;55.22
38227;BME280;24026;49.446;8.576;2023-08-06T09:02:28;99518.53;;;21.64;55.30
38227;BME280;24026;49.446;8.576;2023-08-06T09:04:49;99520.91;;;21.66;55.31
38227;BME280;24026;49.446;8.576;2023-08-06T09:07:13;99512.03;;;21.65;55.29
38227;BME280;24026;49.446;8.576;2023-08-06T09:09:39;99516.28;;;21.67;55.46
38227;BME280;24026;49.446;8.576;2023-08-06T09:12:01;99517.09;;;21.67;55.29
38227;BME280;24026;49.446;8.576;2023-08-06T09:14:22;99513.56;;;21.67;55.48
38227;BME280;24026;49.446;8.576;2023-08-06T09:16:43;99516.28;;;21.67;55.36
38227;BME280;24026;49.446;8.576;2023-08-06T09:19:13;99516.63;;;21.65;55.51
38227;BME280;24026;49.446;8.576;2023-08-06T09:21:41;99532.84;;;21.65;55.36
38227;BME280;24026;49.446;8.576;2023-08-06T09:24:09;99522.03;;;21.65;55.59
38227;BME280;24026;49.446;8.576;2023-08-06T09:26:33;99522.03;;;21.65;55.33
38227;BME280;24026;49.446;8.576;2023-08-06T09:28:54;99522.84;;;21.65;55.75
38227;BME280;24026;49.446;8.576;2023-08-06T09:31:15;99517.44;;;21.65;55.74
38227;BME280;24026;49.446;8.576;2023-08-06T09:33:38;99518.97;;;21.67;55.65
38227;BME280;24026;49.446;8.576;2023-08-06T09:36:07;99509.75;;;21.68;55.74
38227;BME280;24026;49.446;8.576;2023-08-06T09:38:37;99511.69;;;21.67;55.92
38227;BME280;24026;49.446;8.576;2023-08-06T09:40:59;99505.13;;;21.68;55.76
38227;BME280;24026;49.446;8.576;2023-08-06T09:43:19;99507.84;;;21.68;55.77
38227;BME280;24026;49.446;8.576;2023-08-06T09:45:39;99507.06;;;21.68;55.88
38227;BME280;24026;49.446;8.576;2023-08-06T09:48:03;99510.53;;;21.68;56.04
38227;BME280;24026;49.446;8.576;2023-08-06T09:50:28;99522.16;;;21.69;55.95
38227;BME280;24026;49.446;8.576;2023-08-06T09:52:50;99526.75;;;21.68;55.78
38227;BME280;24026;49.446;8.576;2023-08-06T09:55:12;99524.88;;;21.69;55.88
38227;BME280;24026;49.446;8.576;2023-08-06T09:57:32;99528.34;;;21.69;55.96
38227;BME280;24026;49.446;8.576;2023-08-06T09:59:53;99523.72;;;21.70;55.93
38227;BME280;24026;49.446;8.576;2023-08-06T10:02:13;99531.84;;;21.70;56.20
38227;BME280;24026;49.446;8.576;2023-08-06T10:04:34;99525.31;;;21.71;56.14
38227;BME280;24026;49.446;8.576;2023-08-06T10:06:54;99520.25;;;21.69;56.02
38227;BME280;24026;49.446;8.576;2023-08-06T10:09:15;99529.13;;;21.70;56.33
38227;BME280;24026;49.446;8.576;2023-08-06T10:11:37;99529.94;;;21.70;56.24
38227;BME280;24026;49.446;8.576;2023-08-06T10:14:28;99534.09;;;21.68;56.30
38227;BME280;24026;49.446;8.576;2023-08-06T10:16:48;99544.91;;;21.68;56.35
38227;BME280;24026;49.446;8.576;2023-08-06T10:19:10;99543.78;;;21.69;56.37
38227;BME280;24026;49.446;8.576;2023-08-06T10:21:32;99557.31;;;21.69;56.33
38227;BME280;24026;49.446;8.576;2023-08-06T10:23:55;99553.03;;;21.68;56.11
38227;BME280;24026;49.446;8.576;2023-08-06T10:26:16;99564.63;;;21.68;56.09
38227;BME280;24026;49.446;8.576;2023-08-06T10:28:38;99560.34;;;21.67;56.28
38227;BME280;24026;49.446;8.576;2023-08-06T10:30:58;99573.06;;;21.67;56.16
38227;BME280;24026;49.446;8.576;2023-08-06T10:33:19;99567.97;;;21.65;56.40
38227;BME280;24026;49.446;8.576;2023-08-06T10:35:42;99570.69;;;21.65;56.52
38227;BME280;24026;49.446;8.576;2023-08-06T10:40:31;99567.53;;;21.63;56.53
38227;BME280;24026;49.446;8.576;2023-08-06T10:42:51;99574.88;;;21.62;56.37
38227;BME280;24026;49.446;8.576;2023-08-06T10:47:39;99584.91;;;21.62;56.47
38227;BME280;24026;49.446;8.576;2023-08-06T10:50:00;99572.50;;;21.61;56.52
38227;BME280;24026;49.446;8.576;2023-08-06T10:52:21;99583.31;;;21.61;56.37
38227;BME280;24026;49.446;8.576;2023-08-06T10:54:41;99590.63;;;21.60;56.47
38227;BME280;24026;49.446;8.576;2023-08-06T10:57:09;99593.69;;;21.59;56.59
38227;BME280;24026;49.446;8.576;2023-08-06T10:59:30;99585.91;;;21.57;56.59
38227;BME280;24026;49.446;8.576;2023-08-06T11:01:50;99587.47;;;21.58;56.56
38227;BME280;24026;49.446;8.576;2023-08-06T11:04:10;99591.31;;;21.57;56.43
38227;BME280;24026;49.446;8.576;2023-08-06T11:06:36;99589.72;;;21.56;56.43
38227;BME280;24026;49.446;8.576;2023-08-06T11:08:56;99582.41;;;21.57;56.56
38227;BME280;24026;49.446;8.576;2023-08-06T11:11:17;99586.22;;;21.56;56.57
38227;BME280;24026;49.446;8.576;2023-08-06T11:16:01;99600.06;;;21.54;56.51
38227;BME280;24026;49.446;8.576;2023-08-06T11:18:22;99603.91;;;21.53;56.46
38227;BME280;24026;49.446;8.576;2023-08-06T11:20:42;99609.28;;;21.53;56.33
38227;BME280;24026;49.446;8.576;2023-08-06T11:23:03;99609.28;;;21.53;56.44
38227;BME280;24026;49.446;8.576;2023-08-06T11:25:24;99622.03;;;21.53;56.50
38227;BME280;24026;49.446;8.576;2023-08-06T11:27:45;99604.22;;;21.52;56.39
38227;BME280;24026;49.446;8.576;2023-08-06T11:30:06;99620.44;;;21.52;56.39
38227;BME280;24026;49.446;8.576;2023-08-06T11:32:26;99616.19;;;21.51;56.25
38227;BME280;24026;49.446;8.576;2023-08-06T11:34:48;99615.41;;;21.50;56.33
38227;BME280;24026;49.446;8.576;2023-08-06T11:37:08;99625.41;;;21.50;56.24
38227;BME280;24026;49.446;8.576;2023-08-06T11:39:30;99625.41;;;21.50;56.34
38227;BME280;24026;49.446;8.576;2023-08-06T11:41:50;99630.03;;;21.49;56.35
38227;BME280;24026;49.446;8.576;2023-08-06T11:44:11;99626.22;;;21.50;56.16
38227;BME280;24026;49.446;8.576;2023-08-06T11:46:54;99643.09;;;21.47;56.09
38227;BME280;24026;49.446;8.576;2023-08-06T11:49:16;99635.75;;;21.48;55.81
38227;BME280;24026;49.446;8.576;2023-08-06T11:51:36;99641.94;;;21.48;56.04
38227;BME280;24026;49.446;8.576;2023-08-06T11:53:57;99642.75;;;21.49;56.04
38227;BME280;24026;49.446;8.576;2023-08-06T11:56:19;99649.72;;;21.50;56.08
38227;BME280;24026;49.446;8.576;2023-08-06T11:58:41;99650.53;;;21.50;55.72
38227;BME280;24026;49.446;8.576;2023-08-06T12:01:01;99657.84;;;21.50;55.69
38227;BME280;24026;49.446;8.576;2023-08-06T12:03:22;99663.25;;;21.50;55.92
38227;BME280;24026;49.446;8.576;2023-08-06T12:05:47;99671.34;;;21.50;55.56
38227;BME280;24026;49.446;8.576;2023-08-06T12:08:08;99670.56;;;21.49;55.70
38227;BME280;24026;49.446;8.576;2023-08-06T12:10:30;99683.75;;;21.51;55.53
38227;BME280;24026;49.446;8.576;2023-08-06T12:12:52;99679.13;;;21.51;55.51
38227;BME280;24026;49.446;8.576;2023-08-06T12:15:12;99682.16;;;21.50;55.35
38227;BME280;24026;49.446;8.576;2023-08-06T12:17:33;99682.97;;;21.50;55.22
38227;BME280;24026;49.446;8.576;2023-08-06T12:19:53;99685.69;;;21.50;55.08
38227;BME280;24026;49.446;8.576;2023-08-06T12:22:14;99688.38;;;21.50;54.87
38227;BME280;24026;49.446;8.576;2023-08-06T12:24:35;99693.78;;;21.50;54.96
38227;BME280;24026;49.446;8.576;2023-08-06T12:26:55;99690.59;;;21.48;55.03
38227;BME280;24026;49.446;8.576;2023-08-06T12:29:17;99701.09;;;21.50;55.01
38227;BME280;24026;49.446;8.576;2023-08-06T12:31:38;99700.31;;;21.49;54.54
38227;BME280;24026;49.446;8.576;2023-08-06T12:33:58;99701.91;;;21.50;54.85
38227;BME280;24026;49.446;8.576;2023-08-06T12:36:19;99710.00;;;21.50;54.68
38227;BME280;24026;49.446;8.576;2023-08-06T12:38:39;99714.59;;;21.50;54.60